Time;durP1;ratioP1;P1;durP2;ratioP2;P2;SDS_P1;SDS_P2;PMS_P1;PMS_P2;Temp;Humidity;BMP_temperature;BMP_pressure;BME280_temperature;BME280_humidity;BME280_pressure;Samples;Min_cycle;Max_cycle;Signal;HPM_P1;HPM_P2
2022/01/09 00:00:15;;;;;;;1.75;1.15;;;6.60;99.90;;;;;;5051088;28;20485;-73
2022/01/09 00:02:41;;;;;;;1.13;1.00;;;6.60;99.90;;;;;;5051678;28;20123;-73
2022/01/09 00:05:08;;;;;;;1.77;1.08;;;6.70;99.90;;;;;;5051206;28;20127;-74
2022/01/09 00:07:34;;;;;;;2.05;1.10;;;6.70;99.90;;;;;;5051467;28;20029;-73
2022/01/09 00:09:59;;;;;;;0.90;0.73;;;6.60;99.90;;;;;;5051691;28;20082;-73
2022/01/09 00:12:25;;;;;;;1.20;0.88;;;6.50;99.90;;;;;;5051738;28;20468;-74
2022/01/09 00:14:52;;;;;;;1.20;1.10;;;6.60;99.90;;;;;;5052741;28;20029;-74
2022/01/09 00:17:18;;;;;;;1.73;1.33;;;6.60;99.90;;;;;;5052137;28;20029;-73
2022/01/09 00:19:44;;;;;;;1.70;1.15;;;6.70;99.90;;;;;;5051661;28;20384;-73
2022/01/09 00:22:09;;;;;;;2.03;1.60;;;6.70;99.90;;;;;;5051805;28;20033;-73
2022/01/09 00:24:35;;;;;;;1.58;1.38;;;6.60;99.90;;;;;;5051114;28;20044;-73
2022/01/09 00:27:01;;;;;;;1.88;1.48;;;6.60;99.90;;;;;;5052003;28;20029;-73
2022/01/09 00:29:26;;;;;;;1.80;1.20;;;6.60;99.90;;;;;;5052351;28;20024;-73
2022/01/09 00:31:52;;;;;;;1.85;1.20;;;6.70;99.90;;;;;;5051642;28;20380;-73
2022/01/09 00:34:17;;;;;;;1.52;1.20;;;6.80;99.90;;;;;;5051797;28;20159;-73
2022/01/09 00:36:43;;;;;;;1.42;1.33;;;6.80;99.90;;;;;;5051231;28;20033;-72
2022/01/09 00:39:09;;;;;;;1.90;1.35;;;6.80;99.90;;;;;;5051092;28;20032;-73
2022/01/09 00:41:34;;;;;;;1.60;1.40;;;6.90;99.90;;;;;;5052153;28;20029;-73
2022/01/09 00:44:00;;;;;;;1.85;1.50;;;6.90;99.90;;;;;;5041140;28;20112;-73
2022/01/09 00:46:26;;;;;;;1.55;1.30;;;7.00;99.90;;;;;;5051156;28;20036;-73
2022/01/09 00:48:51;;;;;;;2.53;1.40;;;7.00;99.90;;;;;;5051273;28;20388;-73
2022/01/09 00:51:17;;;;;;;2.25;1.35;;;7.00;99.90;;;;;;5050943;28;20139;-73
2022/01/09 00:53:42;;;;;;;1.42;1.10;;;7.00;99.90;;;;;;5051266;28;20037;-73
2022/01/09 00:56:08;;;;;;;1.20;1.10;;;7.10;99.90;;;;;;5051318;28;20025;-73
2022/01/09 00:58:34;;;;;;;1.60;1.50;;;7.10;99.90;;;;;;5051664;28;20025;-73
2022/01/09 01:00:59;;;;;;;2.08;1.48;;;7.10;99.90;;;;;;5051319;28;20095;-73
2022/01/09 01:03:25;;;;;;;2.05;1.83;;;7.10;99.90;;;;;;5054537;28;20115;-73
2022/01/09 01:05:51;;;;;;;4.03;2.92;;;7.00;99.90;;;;;;5054865;28;20086;-73
2022/01/09 01:08:17;;;;;;;3.58;2.70;;;7.00;99.90;;;;;;5054535;28;20029;-73
2022/01/09 01:10:43;;;;;;;3.55;2.50;;;6.90;99.90;;;;;;5059796;28;20028;-73
2022/01/09 01:13:09;;;;;;;3.92;2.85;;;7.00;99.90;;;;;;5066537;28;20525;-73
2022/01/09 01:15:34;;;;;;;2.47;1.98;;;7.00;99.90;;;;;;5058730;28;20033;-73
2022/01/09 01:18:00;;;;;;;2.15;2.00;;;7.00;99.90;;;;;;5055042;28;20461;-73
2022/01/09 01:20:27;;;;;;;2.45;2.08;;;6.90;99.90;;;;;;5054479;28;20163;-73
2022/01/09 01:22:53;;;;;;;2.40;2.20;;;6.90;99.90;;;;;;5054109;28;20443;-73
2022/01/09 01:25:20;;;;;;;2.13;1.90;;;6.90;99.90;;;;;;5053977;28;20477;-73
2022/01/09 01:27:46;;;;;;;2.08;1.67;;;6.80;99.90;;;;;;5054500;28;20125;-73
2022/01/09 01:30:12;;;;;;;2.78;2.10;;;6.80;99.90;;;;;;5054436;28;20092;-73
2022/01/09 01:32:39;;;;;;;1.85;1.23;;;6.80;99.90;;;;;;5053702;28;20385;-73
2022/01/09 01:35:05;;;;;;;2.33;1.17;;;6.80;99.90;;;;;;5054084;28;20056;-73
2022/01/09 01:37:31;;;;;;;3.95;0.90;;;6.70;99.90;;;;;;5053936;28;20104;-73
2022/01/09 01:39:56;;;;;;;2.75;0.80;;;6.70;99.90;;;;;;5054009;28;20108;-73
2022/01/09 01:42:22;;;;;;;3.10;0.77;;;6.70;99.90;;;;;;5053376;28;20032;-72
2022/01/09 01:44:49;;;;;;;6.10;0.95;;;6.70;99.90;;;;;;5054357;28;20037;-73
2022/01/09 01:47:17;;;;;;;7.45;0.85;;;6.70;99.90;;;;;;5054290;28;20095;-72
2022/01/09 01:49:43;;;;;;;4.70;0.70;;;6.60;99.90;;;;;;5054080;28;20463;-72
2022/01/09 01:52:10;;;;;;;7.60;1.00;;;6.60;99.90;;;;;;5053755;28;20044;-73
2022/01/09 01:54:37;;;;;;;11.45;0.95;;;6.70;99.90;;;;;;5053471;28;20036;-72
2022/01/09 01:57:03;;;;;;;12.23;1.40;;;6.70;99.90;;;;;;5053612;28;20082;-72
2022/01/09 01:59:29;;;;;;;16.63;2.08;;;6.70;99.90;;;;;;5053443;28;20083;-72
2022/01/09 02:01:55;;;;;;;17.25;2.20;;;6.70;99.90;;;;;;5054099;28;20032;-73
2022/01/09 02:04:20;;;;;;;15.77;1.60;;;6.70;99.90;;;;;;5052970;28;20045;-72
2022/01/09 02:06:46;;;;;;;17.20;2.58;;;6.80;99.90;;;;;;5048166;28;20025;-73
2022/01/09 02:09:12;;;;;;;21.73;2.53;;;6.80;99.90;;;;;;5053124;28;20039;-73
2022/01/09 02:11:38;;;;;;;21.60;2.63;;;6.80;99.90;;;;;;5054193;28;20384;-73
2022/01/09 02:14:04;;;;;;;26.77;3.38;;;6.80;99.90;;;;;;5052425;28;20031;-73
2022/01/09 02:16:30;;;;;;;19.58;2.40;;;6.90;99.90;;;;;;5053459;28;20040;-72
2022/01/09 02:18:58;;;;;;;26.80;3.35;;;6.90;99.90;;;;;;5053341;28;20029;-72
2022/01/09 02:21:26;;;;;;;23.70;2.75;;;6.90;99.90;;;;;;5052677;28;20546;-73
2022/01/09 02:23:51;;;;;;;26.30;3.67;;;7.00;99.90;;;;;;5038758;28;20066;-73
2022/01/09 02:26:19;;;;;;;23.40;3.35;;;7.00;99.90;;;;;;5015525;28;20559;-73
2022/01/09 02:28:46;;;;;;;25.90;3.00;;;7.00;99.90;;;;;;5017969;28;20022;-73
2022/01/09 02:31:12;;;;;;;25.50;3.15;;;7.00;99.90;;;;;;5024823;28;20121;-73
2022/01/09 02:33:38;;;;;;;38.95;4.05;;;7.00;99.90;;;;;;5027853;28;20128;-73
2022/01/09 02:36:04;;;;;;;34.00;4.57;;;7.00;99.90;;;;;;5015244;28;20440;-73
2022/01/09 02:38:30;;;;;;;37.42;4.10;;;7.10;99.90;;;;;;5019246;28;20040;-73
2022/01/09 02:40:55;;;;;;;39.88;4.68;;;7.10;99.90;;;;;;5053114;28;20384;-73
2022/01/09 02:43:22;;;;;;;33.63;4.35;;;7.10;99.90;;;;;;5053018;28;20060;-73
2022/01/09 02:45:54;;;;;;;43.85;4.47;;;7.10;99.90;;;;;;5052691;28;20036;-73
2022/01/09 02:48:20;;;;;;;36.10;4.75;;;7.10;99.90;;;;;;5052896;28;20032;-73
2022/01/09 02:51:00;;;;;;;40.60;4.28;;;7.10;99.90;;;;;;5052844;28;20021;-73
2022/01/09 02:53:29;;;;;;;36.65;4.57;;;7.10;99.90;;;;;;5052313;28;20062;-73
2022/01/09 02:55:55;;;;;;;34.67;4.05;;;7.10;99.90;;;;;;5052317;28;20025;-73
2022/01/09 02:58:22;;;;;;;31.92;4.40;;;7.10;99.90;;;;;;5052336;28;20469;-73
2022/01/09 03:00:47;;;;;;;41.80;4.55;;;7.10;99.90;;;;;;5052590;28;20053;-73
2022/01/09 03:03:13;;;;;;;39.22;5.43;;;7.20;99.90;;;;;;5052568;28;20032;-73
2022/01/09 03:05:39;;;;;;;39.35;5.43;;;7.20;99.90;;;;;;5052542;28;20484;-72
2022/01/09 03:08:05;;;;;;;34.17;4.43;;;7.20;99.90;;;;;;5059606;28;20033;-73
2022/01/09 03:10:31;;;;;;;35.65;4.07;;;7.20;99.90;;;;;;5061332;28;20040;-72
2022/01/09 03:12:58;;;;;;;34.42;4.47;;;7.20;99.90;;;;;;5052791;28;20377;-72
2022/01/09 03:15:25;;;;;;;42.25;5.25;;;7.10;99.90;;;;;;5052351;28;20033;-72
2022/01/09 03:17:52;;;;;;;39.22;4.20;;;7.10;99.90;;;;;;5052654;28;20025;-72
2022/01/09 03:20:21;;;;;;;29.35;4.05;;;7.20;99.90;;;;;;5051803;28;20027;-72
2022/01/09 03:22:47;;;;;;;45.97;4.72;;;7.20;99.90;;;;;;5050767;28;20053;-72
2022/01/09 03:25:13;;;;;;;35.90;4.85;;;7.20;99.90;;;;;;5051459;28;20040;-72
2022/01/09 03:27:40;;;;;;;41.63;4.90;;;7.20;99.90;;;;;;5052228;28;20025;-72
2022/01/09 03:30:08;;;;;;;32.42;5.25;;;7.20;99.90;;;;;;5051977;28;20025;-72
2022/01/09 03:32:36;;;;;;;40.45;5.68;;;7.20;99.90;;;;;;5052366;28;20033;-72
2022/01/09 03:35:02;;;;;;;41.60;4.03;;;7.20;99.90;;;;;;5051840;28;20036;-73
2022/01/09 03:37:28;;;;;;;25.05;3.28;;;7.20;99.90;;;;;;5052236;28;20049;-73
2022/01/09 03:39:54;;;;;;;38.38;4.68;;;7.20;99.90;;;;;;5051602;28;20464;-72
2022/01/09 03:42:20;;;;;;;38.40;4.55;;;7.20;99.90;;;;;;5052216;28;20036;-72
2022/01/09 03:44:45;;;;;;;39.28;4.10;;;7.20;99.90;;;;;;5051495;28;20045;-73
2022/01/09 03:47:11;;;;;;;36.55;4.07;;;7.20;99.90;;;;;;5049299;28;20062;-72
2022/01/09 03:49:36;;;;;;;33.35;4.85;;;7.20;99.90;;;;;;5051841;28;20025;-72
2022/01/09 03:52:02;;;;;;;34.03;4.28;;;7.20;99.90;;;;;;5052377;28;20021;-73
2022/01/09 03:54:28;;;;;;;28.52;3.60;;;7.20;99.90;;;;;;5052107;28;20083;-73
2022/01/09 03:56:54;;;;;;;30.38;3.72;;;7.10;99.90;;;;;;5051860;28;20029;-73
2022/01/09 03:59:19;;;;;;;26.58;3.92;;;7.10;99.90;;;;;;5051515;28;20404;-73
2022/01/09 04:01:46;;;;;;;24.85;3.00;;;7.10;99.90;;;;;;5051720;28;20021;-73
2022/01/09 04:04:12;;;;;;;25.35;3.13;;;7.00;99.90;;;;;;5051881;28;20025;-73
2022/01/09 04:06:44;;;;;;;27.40;3.20;;;7.00;99.90;;;;;;5065716;28;20048;-73
2022/01/09 04:09:18;;;;;;;28.40;2.92;;;7.00;99.90;;;;;;5055434;28;20029;-73
2022/01/09 04:11:45;;;;;;;28.88;3.33;;;7.10;99.90;;;;;;5051493;28;20041;-73
2022/01/09 04:14:11;;;;;;;24.50;3.22;;;7.00;99.90;;;;;;5051299;28;20108;-72
2022/01/09 04:16:36;;;;;;;41.00;3.83;;;7.00;99.90;;;;;;5049008;28;20100;-72
2022/01/09 04:19:02;;;;;;;28.60;3.05;;;7.00;99.90;;;;;;5051820;28;20025;-73
2022/01/09 04:21:28;;;;;;;30.48;2.95;;;7.00;99.90;;;;;;5051325;28;20025;-72
2022/01/09 04:23:53;;;;;;;27.30;3.53;;;7.00;99.90;;;;;;5050955;28;20098;-73
2022/01/09 04:26:21;;;;;;;30.83;3.17;;;7.00;99.90;;;;;;5051790;28;20021;-72
2022/01/09 04:28:47;;;;;;;24.73;3.88;;;7.00;99.90;;;;;;5050875;28;20087;-72
2022/01/09 04:31:15;;;;;;;29.63;3.03;;;7.00;99.90;;;;;;5049032;28;20067;-72
2022/01/09 04:33:42;;;;;;;29.30;2.95;;;7.00;99.90;;;;;;5051602;28;20036;-72
2022/01/09 04:36:07;;;;;;;27.80;3.03;;;7.00;99.90;;;;;;5051538;28;20167;-73
2022/01/09 04:38:33;;;;;;;26.50;3.75;;;7.00;99.90;;;;;;5054597;28;20040;-72
2022/01/09 04:40:59;;;;;;;28.30;2.97;;;7.00;99.90;;;;;;5056090;28;20384;-72
2022/01/09 04:43:26;;;;;;;31.75;3.22;;;7.00;99.90;;;;;;5049739;28;20040;-72
2022/01/09 04:45:52;;;;;;;27.20;2.88;;;7.00;99.90;;;;;;5055145;28;20052;-73
2022/01/09 04:48:17;;;;;;;24.40;3.15;;;7.00;99.90;;;;;;5055523;28;20373;-72
2022/01/09 04:50:45;;;;;;;29.33;3.45;;;7.00;99.90;;;;;;5055062;28;20024;-73
2022/01/09 04:53:11;;;;;;;27.10;3.28;;;7.00;99.90;;;;;;5053958;28;20025;-73
2022/01/09 04:55:42;;;;;;;23.58;2.97;;;7.00;99.90;;;;;;5055077;28;20025;-72
2022/01/09 04:58:09;;;;;;;26.17;2.90;;;7.00;99.90;;;;;;5055095;28;20094;-72
2022/01/09 05:00:35;;;;;;;21.30;3.20;;;7.00;99.90;;;;;;5054467;28;20128;-72
2022/01/09 05:03:01;;;;;;;25.73;3.00;;;7.00;99.90;;;;;;5054797;28;20036;-73
2022/01/09 05:05:27;;;;;;;24.40;2.65;;;6.90;99.90;;;;;;5055329;28;20037;-72
2022/01/09 05:07:52;;;;;;;24.02;2.88;;;6.90;99.90;;;;;;5054767;28;20032;-73
2022/01/09 05:10:18;;;;;;;20.15;2.55;;;6.90;99.90;;;;;;5053974;28;20082;-72
2022/01/09 05:12:44;;;;;;;23.95;2.88;;;6.80;99.90;;;;;;5048117;28;20072;-72
2022/01/09 05:15:12;;;;;;;26.80;3.78;;;6.80;99.90;;;;;;5020028;28;20068;-73
2022/01/09 05:17:38;;;;;;;20.85;2.40;;;6.80;99.90;;;;;;5032030;28;20037;-73
2022/01/09 05:20:05;;;;;;;28.38;2.72;;;6.90;99.90;;;;;;5024171;28;20044;-73
2022/01/09 05:22:30;;;;;;;24.08;2.60;;;6.90;99.90;;;;;;5016786;28;20034;-73
2022/01/09 05:25:02;;;;;;;25.33;3.35;;;6.90;99.90;;;;;;5017828;28;20041;-73
2022/01/09 05:27:27;;;;;;;23.70;2.45;;;6.90;99.90;;;;;;5046553;28;20464;-73
2022/01/09 05:29:53;;;;;;;15.73;2.35;;;6.90;99.90;;;;;;5054258;28;20112;-72
2022/01/09 05:32:19;;;;;;;25.55;3.17;;;6.90;99.90;;;;;;5052382;28;20052;-72
2022/01/09 05:34:45;;;;;;;19.33;2.28;;;6.90;99.90;;;;;;5048980;28;20028;-72
2022/01/09 05:37:11;;;;;;;22.67;2.80;;;6.90;99.90;;;;;;5053952;28;20048;-72
2022/01/09 05:39:36;;;;;;;24.75;2.85;;;6.90;99.90;;;;;;5053779;28;20063;-72
2022/01/09 05:42:04;;;;;;;26.23;2.78;;;6.90;99.90;;;;;;5054059;28;20029;-72
2022/01/09 05:44:31;;;;;;;14.55;2.03;;;6.80;99.90;;;;;;5053792;28;20404;-72
2022/01/09 05:46:58;;;;;;;20.13;2.40;;;6.80;99.90;;;;;;5053809;28;20058;-72
2022/01/09 05:49:23;;;;;;;25.27;2.55;;;6.80;99.90;;;;;;5054471;28;20033;-72
2022/01/09 05:51:49;;;;;;;18.30;2.40;;;6.80;99.90;;;;;;5054026;28;20468;-72
2022/01/09 05:54:14;;;;;;;20.92;3.47;;;6.80;99.90;;;;;;5053686;28;20025;-72
2022/01/09 05:56:40;;;;;;;20.60;2.80;;;6.80;99.90;;;;;;5053961;28;20033;-72
2022/01/09 05:59:06;;;;;;;20.27;1.92;;;6.70;99.90;;;;;;5053815;28;20755;-72
2022/01/09 06:01:31;;;;;;;24.80;2.53;;;6.70;99.90;;;;;;5053755;28;20029;-73
2022/01/09 06:03:57;;;;;;;23.35;1.92;;;6.80;99.90;;;;;;5054353;28;20496;-73
2022/01/09 06:06:22;;;;;;;23.17;2.30;;;6.80;99.90;;;;;;5053456;28;20464;-72
2022/01/09 06:08:48;;;;;;;28.95;2.53;;;6.80;99.90;;;;;;5053660;28;20053;-72
2022/01/09 06:11:13;;;;;;;21.77;2.10;;;6.70;99.90;;;;;;5053466;28;20468;-72
2022/01/09 06:13:39;;;;;;;22.35;2.42;;;6.70;99.90;;;;;;5053212;28;20029;-72
2022/01/09 06:16:05;;;;;;;18.88;2.25;;;6.70;99.90;;;;;;5053289;28;20035;-72
2022/01/09 06:18:30;;;;;;;21.67;2.85;;;6.70;99.90;;;;;;5053789;28;20048;-72
2022/01/09 06:20:56;;;;;;;16.75;2.33;;;6.70;99.90;;;;;;5053101;28;20025;-72
2022/01/09 06:23:23;;;;;;;20.70;2.33;;;6.60;99.90;;;;;;5053009;28;20132;-73
2022/01/09 06:25:50;;;;;;;17.60;1.85;;;6.60;99.90;;;;;;5053514;28;20043;-73
2022/01/09 06:28:16;;;;;;;19.98;2.00;;;6.60;99.90;;;;;;5053442;28;20104;-72
2022/01/09 06:30:42;;;;;;;22.15;2.72;;;6.70;99.90;;;;;;5053160;28;20406;-73
2022/01/09 06:33:08;;;;;;;15.50;1.88;;;6.60;99.90;;;;;;5052366;28;20506;-73
2022/01/09 06:35:34;;;;;;;17.10;1.95;;;6.60;99.90;;;;;;5053231;28;20029;-72
2022/01/09 06:38:00;;;;;;;21.73;2.72;;;6.60;99.90;;;;;;5052999;28;20021;-72
2022/01/09 06:40:26;;;;;;;13.55;1.77;;;6.50;99.90;;;;;;5052902;28;20029;-72
2022/01/09 06:42:51;;;;;;;16.77;1.88;;;6.60;99.90;;;;;;5052566;28;20064;-72
2022/01/09 06:45:17;;;;;;;18.63;1.90;;;6.50;99.90;;;;;;5052520;28;20059;-72
2022/01/09 06:47:42;;;;;;;17.13;1.88;;;6.50;99.90;;;;;;5052764;28;20056;-72
2022/01/09 06:50:10;;;;;;;17.52;1.65;;;6.50;99.90;;;;;;5053239;28;20034;-72
2022/01/09 06:52:37;;;;;;;19.33;1.75;;;6.50;99.90;;;;;;5051630;28;20032;-72
2022/01/09 06:55:03;;;;;;;15.40;1.70;;;6.50;99.90;;;;;;5052594;28;20025;-72
2022/01/09 06:57:29;;;;;;;19.88;3.08;;;6.50;99.90;;;;;;5052176;28;20538;-72
2022/01/09 06:59:55;;;;;;;16.15;1.98;;;6.50;99.90;;;;;;5054850;28;20044;-73
2022/01/09 07:02:21;;;;;;;14.27;1.77;;;6.50;99.90;;;;;;5065813;28;20032;-72
2022/01/09 07:04:46;;;;;;;13.43;1.48;;;6.50;99.90;;;;;;5052686;28;20037;-72
2022/01/09 07:07:12;;;;;;;18.05;2.10;;;6.50;99.90;;;;;;5052577;28;20410;-72
2022/01/09 07:09:38;;;;;;;19.45;1.75;;;6.40;99.90;;;;;;5052922;28;20025;-73
2022/01/09 07:12:04;;;;;;;13.88;2.03;;;6.40;99.90;;;;;;5052404;28;20051;-73
2022/01/09 07:14:30;;;;;;;16.40;1.58;;;6.40;99.90;;;;;;5052610;28;20032;-72
2022/01/09 07:16:56;;;;;;;14.57;2.17;;;6.40;99.90;;;;;;5052340;28;20385;-73
2022/01/09 07:19:21;;;;;;;11.48;1.77;;;6.30;99.90;;;;;;5051768;28;20527;-72
2022/01/09 07:21:47;;;;;;;13.85;1.50;;;6.30;99.90;;;;;;5052314;28;20139;-76
2022/01/09 07:24:12;;;;;;;16.73;2.10;;;6.30;99.90;;;;;;5051939;28;20155;-73
2022/01/09 07:26:38;;;;;;;16.98;1.42;;;6.30;99.90;;;;;;5052238;28;20029;-73
2022/01/09 07:29:03;;;;;;;21.60;1.85;;;6.30;99.90;;;;;;5050473;28;20028;-73
2022/01/09 07:31:29;;;;;;;23.98;2.10;;;6.30;99.90;;;;;;5050710;28;20381;-73
2022/01/09 07:33:55;;;;;;;18.73;1.88;;;6.30;99.90;;;;;;5051331;28;20059;-73
2022/01/09 07:36:21;;;;;;;14.20;1.50;;;6.30;99.90;;;;;;5052166;28;20033;-73
2022/01/09 07:38:46;;;;;;;13.65;1.35;;;6.30;99.90;;;;;;5051496;28;20037;-73
2022/01/09 07:41:14;;;;;;;15.10;1.95;;;6.40;99.90;;;;;;5051867;28;20021;-73
2022/01/09 07:43:40;;;;;;;15.88;2.00;;;6.30;99.90;;;;;;5051598;28;20543;-73
2022/01/09 07:46:06;;;;;;;12.63;1.52;;;6.40;99.90;;;;;;5052202;28;20435;-73
2022/01/09 07:48:32;;;;;;;13.73;1.35;;;6.40;99.90;;;;;;5051550;28;20033;-73
2022/01/09 07:50:57;;;;;;;14.05;2.30;;;6.40;99.90;;;;;;5051899;28;20055;-73
2022/01/09 07:53:23;;;;;;;17.67;1.63;;;6.40;99.90;;;;;;5051780;28;20025;-73
2022/01/09 07:55:51;;;;;;;10.02;1.48;;;6.40;99.90;;;;;;5051550;28;20017;-76
2022/01/09 07:58:18;;;;;;;9.10;1.52;;;6.40;99.90;;;;;;5059944;28;20059;-78
2022/01/09 08:00:43;;;;;;;13.45;1.27;;;6.40;99.90;;;;;;5057278;28;20060;-77
2022/01/09 08:03:12;;;;;;;11.52;1.00;;;6.40;99.90;;;;;;5052549;28;20029;-80
2022/01/09 08:05:38;;;;;;;9.27;1.00;;;6.30;99.90;;;;;;5051162;28;20075;-79
2022/01/09 08:08:05;;;;;;;13.82;1.98;;;6.30;99.90;;;;;;5017533;28;20022;-78
2022/01/09 08:10:30;;;;;;;12.95;1.73;;;6.40;99.90;;;;;;5020975;28;20107;-78
2022/01/09 08:12:56;;;;;;;14.63;1.52;;;6.30;99.90;;;;;;5019789;28;20069;-78
2022/01/09 08:15:21;;;;;;;16.48;1.73;;;6.30;99.90;;;;;;5032553;28;20174;-79
2022/01/09 08:17:47;;;;;;;20.50;2.15;;;6.30;99.90;;;;;;5036743;28;20033;-79
2022/01/09 08:20:14;;;;;;;11.73;1.13;;;6.30;99.90;;;;;;5056237;28;20033;-79
2022/01/09 08:22:41;;;;;;;11.52;1.40;;;6.30;99.90;;;;;;5056104;28;20021;-79
2022/01/09 08:25:12;;;;;;;13.30;1.17;;;6.20;99.90;;;;;;5055579;28;20033;-80
2022/01/09 08:27:38;;;;;;;9.55;0.75;;;6.20;99.90;;;;;;5055356;28;20025;-78
2022/01/09 08:30:06;;;;;;;11.65;1.10;;;6.20;99.90;;;;;;5055460;28;20103;-76
2022/01/09 08:32:32;;;;;;;14.48;1.10;;;6.20;99.90;;;;;;5055397;28;20037;-79
2022/01/09 08:34:57;;;;;;;10.90;1.70;;;6.20;99.90;;;;;;5055803;28;20086;-77
2022/01/09 08:37:23;;;;;;;11.43;1.58;;;6.20;99.90;;;;;;5055606;28;20036;-79
2022/01/09 08:39:49;;;;;;;11.82;1.20;;;6.20;99.90;;;;;;5055096;28;20349;-81
2022/01/09 08:42:14;;;;;;;12.73;1.13;;;6.30;99.90;;;;;;5046839;28;20112;-79
2022/01/09 08:44:40;;;;;;;16.95;1.40;;;6.30;99.90;;;;;;5046881;28;20917;-78
2022/01/09 08:47:06;;;;;;;8.48;1.20;;;6.40;99.90;;;;;;5049988;28;20025;-77
2022/01/09 08:49:32;;;;;;;10.55;0.90;;;6.40;99.90;;;;;;5050784;28;20441;-79
2022/01/09 08:51:58;;;;;;;16.33;1.73;;;6.40;99.90;;;;;;5054842;28;20507;-76
2022/01/09 08:54:24;;;;;;;14.43;1.50;;;6.40;99.90;;;;;;5048873;28;20029;-75
2022/01/09 08:56:50;;;;;;;8.82;0.95;;;6.50;99.90;;;;;;5052098;28;20060;-76
2022/01/09 08:59:15;;;;;;;12.70;1.52;;;6.50;99.90;;;;;;5045799;28;20037;-80
2022/01/09 09:01:41;;;;;;;12.63;1.10;;;6.50;99.90;;;;;;5042979;28;20086;-79
2022/01/09 09:04:07;;;;;;;12.60;1.42;;;6.50;99.80;;;;;;5041126;28;20037;-74
2022/01/09 09:06:32;;;;;;;14.38;1.38;;;6.50;99.60;;;;;;5052072;28;20094;-79
2022/01/09 09:08:58;;;;;;;13.02;1.40;;;6.50;99.60;;;;;;5055031;28;20110;-78
2022/01/09 09:11:23;;;;;;;11.15;0.75;;;6.50;99.40;;;;;;5051716;28;20040;-78
2022/01/09 09:13:49;;;;;;;15.63;1.92;;;6.60;99.30;;;;;;5045248;28;20384;-77
2022/01/09 09:16:16;;;;;;;12.13;1.73;;;6.60;99.30;;;;;;5048373;28;20029;-78
2022/01/09 09:18:43;;;;;;;13.23;1.40;;;6.70;99.40;;;;;;5050452;28;20033;-77
2022/01/09 09:21:09;;;;;;;13.75;1.08;;;6.70;99.20;;;;;;5054651;28;20025;-77
2022/01/09 09:23:35;;;;;;;19.10;1.38;;;6.80;98.60;;;;;;5053693;28;20087;-76
2022/01/09 09:26:01;;;;;;;9.77;1.23;;;6.80;98.40;;;;;;5053732;28;20032;-76
2022/01/09 09:28:27;;;;;;;10.63;1.05;;;6.80;98.40;;;;;;5052995;28;20021;-76
2022/01/09 09:30:53;;;;;;;7.10;1.00;;;6.90;98.30;;;;;;5054457;28;20072;-77
2022/01/09 09:33:18;;;;;;;13.52;1.35;;;7.00;98.20;;;;;;5047007;28;20380;-78
2022/01/09 09:35:44;;;;;;;11.48;1.38;;;7.00;98.30;;;;;;5043600;28;20464;-76
2022/01/09 09:38:10;;;;;;;11.70;1.67;;;7.00;98.20;;;;;;5039670;28;20053;-78
2022/01/09 09:40:35;;;;;;;10.35;1.30;;;7.00;98.10;;;;;;5041588;28;20116;-79
2022/01/09 09:43:01;;;;;;;14.73;1.38;;;7.00;98.20;;;;;;5044695;28;20039;-77
2022/01/09 09:45:28;;;;;;;9.25;0.98;;;6.90;98.40;;;;;;5047173;28;20052;-74
2022/01/09 09:47:54;;;;;;;14.50;1.45;;;6.90;98.50;;;;;;5042029;28;20702;-73
2022/01/09 09:50:21;;;;;;;12.65;1.30;;;6.90;98.70;;;;;;5042073;28;20048;-75
2022/01/09 09:52:48;;;;;;;12.98;1.58;;;6.90;99.00;;;;;;5048926;28;20036;-74
2022/01/09 09:55:16;;;;;;;18.85;2.75;;;6.90;98.90;;;;;;5047026;28;20033;-75
2022/01/09 09:57:42;;;;;;;11.23;1.42;;;6.90;99.10;;;;;;5049076;28;20069;-72
2022/01/09 10:00:19;;;;;;;14.18;1.48;;;6.90;99.10;;;;;;5053201;28;20083;-72
2022/01/09 10:02:48;;;;;;;9.63;1.73;;;6.80;99.30;;;;;;5054108;28;20029;-72
2022/01/09 10:05:16;;;;;;;16.08;1.95;;;6.90;99.30;;;;;;5053942;28;20036;-73
2022/01/09 10:07:43;;;;;;;12.52;1.52;;;6.90;99.60;;;;;;5051668;28;20025;-73
2022/01/09 10:10:14;;;;;;;20.10;2.35;;;6.90;99.20;;;;;;5053222;28;20473;-74
2022/01/09 10:12:40;;;;;;;15.88;1.88;;;6.90;99.40;;;;;;5053392;28;20495;-73
2022/01/09 10:15:10;;;;;;;13.13;1.48;;;6.90;99.60;;;;;;5053237;28;20045;-72
2022/01/09 10:17:42;;;;;;;15.30;2.42;;;7.00;99.50;;;;;;5052608;28;20028;-73
2022/01/09 10:20:23;;;;;;;9.70;1.20;;;7.00;98.70;;;;;;5053396;28;20025;-73
2022/01/09 10:22:54;;;;;;;13.43;1.63;;;7.00;98.50;;;;;;5044562;28;20499;-77
2022/01/09 10:25:33;;;;;;;7.88;1.00;;;7.00;98.60;;;;;;5052384;28;20039;-77
2022/01/09 10:28:20;;;;;;;10.00;1.02;;;7.00;98.50;;;;;;5047367;28;20055;-76
2022/01/09 10:30:51;;;;;;;10.27;1.08;;;7.00;98.70;;;;;;5052678;28;20020;-77
2022/01/09 10:33:25;;;;;;;11.40;1.45;;;7.10;98.90;;;;;;5053047;28;20028;-74
2022/01/09 10:35:51;;;;;;;16.40;1.58;;;7.10;99.00;;;;;;5052479;28;20025;-74
2022/01/09 10:38:27;;;;;;;11.82;1.40;;;7.10;99.50;;;;;;5052668;28;20029;-74
2022/01/09 10:40:56;;;;;;;9.85;1.30;;;7.10;99.70;;;;;;5052722;28;20103;-75
2022/01/09 10:43:34;;;;;;;9.82;1.25;;;7.10;99.70;;;;;;5051998;28;20349;-75
2022/01/09 10:46:01;;;;;;;23.08;2.88;;;7.10;99.90;;;;;;5052649;28;20039;-75
2022/01/09 10:48:39;;;;;;;13.10;1.55;;;7.10;99.90;;;;;;5052892;28;20036;-74
2022/01/09 10:51:07;;;;;;;12.20;1.63;;;7.10;99.90;;;;;;5052787;28;20027;-74
2022/01/09 10:53:37;;;;;;;16.85;1.55;;;7.20;99.90;;;;;;5051677;28;20027;-74
2022/01/09 10:56:16;;;;;;;10.20;1.25;;;7.20;99.90;;;;;;5045770;28;20075;-74
2022/01/09 10:58:48;;;;;;;13.80;2.00;;;7.40;99.90;;;;;;5050576;28;20466;-74
2022/01/09 11:01:13;;;;;;;12.52;1.83;;;7.50;99.90;;;;;;5036879;28;20095;-74
2022/01/09 11:03:42;;;;;;;15.00;1.50;;;7.50;99.90;;;;;;5029600;28;20029;-74
2022/01/09 11:06:09;;;;;;;17.65;1.60;;;7.60;99.90;;;;;;5027015;28;20366;-74
2022/01/09 11:08:37;;;;;;;18.38;2.40;;;7.60;99.90;;;;;;5021035;28;20087;-74
2022/01/09 11:11:08;;;;;;;13.15;1.58;;;7.60;99.80;;;;;;5016684;28;20053;-75
2022/01/09 11:13:37;;;;;;;14.10;1.45;;;7.70;99.70;;;;;;5016090;28;20115;-74
2022/01/09 11:18:47;;;;;;;22.38;1.95;;;7.80;99.50;;;;;;5052029;28;20028;-74
2022/01/09 11:21:13;;;;;;;13.00;2.05;;;7.90;99.30;;;;;;5050988;28;20028;-74
2022/01/09 11:24:14;;;;;;;14.32;1.63;;;8.10;99.20;;;;;;5052066;28;20029;-75
2022/01/09 11:27:15;;;;;;;14.00;1.85;;;8.10;98.70;;;;;;5050329;28;20064;-74
2022/01/09 11:30:09;;;;;;;12.32;1.52;;;8.20;98.40;;;;;;5051767;28;20078;-75
2022/01/09 11:32:49;;;;;;;10.30;1.58;;;8.20;97.80;;;;;;5052055;28;20025;-74
2022/01/09 11:35:38;;;;;;;13.48;1.70;;;8.20;97.20;;;;;;5051503;28;20027;-74
2022/01/09 11:38:23;;;;;;;16.48;1.73;;;8.20;97.10;;;;;;5048420;28;20464;-74
2022/01/09 11:40:49;;;;;;;16.30;1.63;;;8.20;97.30;;;;;;5051867;28;20095;-74
2022/01/09 11:43:17;;;;;;;12.73;1.27;;;8.30;97.30;;;;;;5051478;28;20464;-74
2022/01/09 11:45:45;;;;;;;11.50;1.60;;;8.30;96.90;;;;;;5051657;28;20037;-74
2022/01/09 11:48:12;;;;;;;13.23;1.90;;;8.20;95.80;;;;;;5051623;28;20079;-74
2022/01/09 11:51:06;;;;;;;7.22;0.88;;;8.10;95.60;;;;;;5052368;28;20029;-74
2022/01/09 11:54:09;;;;;;;8.80;1.05;;;8.00;95.80;;;;;;5050408;28;20110;-75
2022/01/09 11:56:46;;;;;;;13.15;1.10;;;8.00;95.90;;;;;;5016530;28;20037;-74
2022/01/09 11:59:20;;;;;;;9.23;1.13;;;8.00;96.00;;;;;;5045824;28;20049;-75
2022/01/09 12:01:46;;;;;;;12.20;1.60;;;8.00;96.00;;;;;;5050477;28;20491;-76
2022/01/09 12:04:30;;;;;;;8.57;1.40;;;8.00;95.80;;;;;;5051592;28;20041;-75
2022/01/09 12:06:57;;;;;;;7.22;1.10;;;8.00;96.20;;;;;;5047107;28;20491;-76
2022/01/09 12:09:35;;;;;;;10.13;1.10;;;8.00;96.20;;;;;;5042965;28;20044;-77
2022/01/09 12:12:05;;;;;;;9.75;1.33;;;8.10;96.10;;;;;;5051571;28;20129;-74
2022/01/09 12:14:56;;;;;;;11.13;1.15;;;8.10;96.30;;;;;;5051630;28;20548;-75
2022/01/09 12:17:21;;;;;;;11.05;1.17;;;8.10;95.90;;;;;;5051210;28;20037;-76
2022/01/09 12:20:12;;;;;;;6.95;1.42;;;8.10;95.70;;;;;;5045230;28;20043;-76
2022/01/09 12:22:45;;;;;;;11.55;1.40;;;8.10;95.80;;;;;;5050973;28;20427;-74
2022/01/09 12:25:26;;;;;;;11.82;1.77;;;8.10;95.80;;;;;;5051047;28;20029;-76
2022/01/09 12:27:56;;;;;;;12.18;1.63;;;8.10;96.00;;;;;;5051388;28;20033;-74
2022/01/09 12:30:44;;;;;;;13.73;1.35;;;8.10;96.00;;;;;;5051157;28;20029;-75
2022/01/09 12:33:20;;;;;;;8.15;1.05;;;8.20;96.20;;;;;;5047052;28;20433;-74
2022/01/09 12:35:47;;;;;;;10.68;1.90;;;8.20;96.10;;;;;;5051167;28;20465;-77
2022/01/09 12:38:18;;;;;;;12.85;1.23;;;8.30;96.30;;;;;;5050907;28;20465;-79
2022/01/09 12:40:44;;;;;;;10.80;1.48;;;8.50;96.60;;;;;;5052289;28;20044;-76
2022/01/09 12:43:12;;;;;;;11.75;1.67;;;8.60;96.50;;;;;;5043292;28;20029;-77
2022/01/09 12:45:43;;;;;;;11.75;1.35;;;8.70;96.40;;;;;;5051533;28;20045;-78
2022/01/09 12:48:20;;;;;;;9.40;1.60;;;8.70;96.00;;;;;;5051007;28;20028;-75
2022/01/09 12:50:47;;;;;;;10.18;1.45;;;8.70;96.00;;;;;;5051497;28;20101;-77
2022/01/09 12:53:16;;;;;;;11.27;1.40;;;8.80;96.30;;;;;;5050828;28;20029;-77